Academy, South Dakota
Current Conditions -  °F | °C
As of 6:35 PM on Friday 31 Oct 2014 (Local Time) from K9V9 Reporting Station
Clear Clear  
Wind Chill: 27°   Ceiling: Unl
Heat Index: 35°   Visibility: 10mi
Dew Point: 16°   Wind: 10mph
Humidity: 45%   Direction: 130°SE
Pressure: 30.33"   Gusts: NA
Location:  43.4255°N, 98.9806°W
Report Text: K9V9 312335Z AUTO 13009KT 10SM CLR 02/M09 A3033 RMK AO2 T00171090
Loading
Personal Weather Stations






























Interactive Weather Map
Tropical Storm Tracking
New forecast layout! Learn more

10-Day Weather Forecast

Advertisements
Track Severe Weather on mobile